createdAt,value
2023-04-09T00:01:23.012Z,101952.00
2023-04-09T00:03:50.993Z,101951.00
2023-04-09T00:06:20.233Z,101951.00
2023-04-09T00:08:47.923Z,101949.00
2023-04-09T00:11:15.697Z,101945.00
2023-04-09T00:13:43.390Z,101945.00
2023-04-09T00:16:11.225Z,101950.00
2023-04-09T00:18:39.025Z,101942.00
2023-04-09T00:21:08.517Z,101946.00
2023-04-09T00:23:37.643Z,101939.00
2023-04-09T00:26:06.018Z,101937.00
2023-04-09T00:28:33.823Z,101941.00
2023-04-09T00:31:01.689Z,101929.00
2023-04-09T00:33:29.409Z,101939.00
2023-04-09T00:35:57.149Z,101946.00
2023-04-09T00:38:24.919Z,101949.00
2023-04-09T00:40:54.009Z,101939.00
2023-04-09T00:43:22.219Z,101932.00
2023-04-09T00:45:50.083Z,101938.00
2023-04-09T00:48:18.733Z,101937.00
2023-04-09T00:50:46.430Z,101905.00
2023-04-09T00:53:15.420Z,101930.00
2023-04-09T00:55:43.392Z,101925.00
2023-04-09T00:58:12.904Z,101923.00
2023-04-09T01:00:40.894Z,101925.00
2023-04-09T01:03:09.538Z,101925.00
2023-04-09T01:05:45.101Z,101926.00
2023-04-09T01:08:20.390Z,101926.00
2023-04-09T01:10:55.253Z,101926.00
2023-04-09T01:13:31.572Z,101930.00
2023-04-09T01:16:02.489Z,101924.00
2023-04-09T01:18:36.544Z,101933.00
2023-04-09T01:21:10.928Z,101936.00
2023-04-09T01:23:47.826Z,101933.00
2023-04-09T01:26:23.661Z,101932.00
2023-04-09T01:28:55.665Z,101918.00
2023-04-09T01:31:29.533Z,101924.00
2023-04-09T01:33:58.687Z,101925.00
2023-04-09T01:36:27.976Z,101922.00
2023-04-09T01:38:57.255Z,101916.00
2023-04-09T01:41:27.239Z,101917.00
2023-04-09T01:43:56.879Z,101923.00
2023-04-09T01:46:26.105Z,101920.00
2023-04-09T01:48:54.966Z,101921.00
2023-04-09T01:51:23.042Z,101911.00
2023-04-09T01:53:50.935Z,101913.00
2023-04-09T01:56:18.675Z,101921.00
2023-04-09T01:58:46.362Z,101874.00
2023-04-09T02:01:21.633Z,101905.00
2023-04-09T02:03:54.763Z,101904.00
2023-04-09T02:06:31.092Z,101915.00
2023-04-09T02:09:01.262Z,101896.00
2023-04-09T02:11:31.243Z,101891.00
2023-04-09T02:13:59.387Z,101895.00
2023-04-09T02:16:29.538Z,101890.00
2023-04-09T02:18:57.700Z,101891.00
2023-04-09T02:21:27.052Z,101896.00
2023-04-09T02:23:55.634Z,101891.00
2023-04-09T02:26:24.032Z,101903.00
2023-04-09T02:28:52.149Z,101905.00
2023-04-09T02:31:19.985Z,101912.00
2023-04-09T02:33:49.049Z,101904.00
2023-04-09T02:36:16.787Z,101911.00
2023-04-09T02:38:44.498Z,101899.00
2023-04-09T02:41:12.299Z,101883.00
2023-04-09T02:43:40.002Z,101904.00
2023-04-09T02:46:08.426Z,101916.00
2023-04-09T02:48:36.203Z,101900.00
2023-04-09T02:51:08.235Z,101902.00
2023-04-09T02:53:37.631Z,101908.00
2023-04-09T02:56:05.930Z,101903.00
2023-04-09T02:58:33.700Z,101894.00
2023-04-09T03:01:01.521Z,101896.00
2023-04-09T03:03:29.378Z,101895.00
2023-04-09T03:05:57.150Z,101890.00
2023-04-09T03:08:26.272Z,101893.00
2023-04-09T03:10:53.945Z,101887.00
2023-04-09T03:13:21.693Z,101892.00
2023-04-09T03:15:52.763Z,101885.00
2023-04-09T03:18:20.801Z,101885.00
2023-04-09T03:20:48.472Z,101886.00
2023-04-09T03:23:16.374Z,101871.00
2023-04-09T03:25:45.521Z,101872.00
2023-04-09T03:28:13.246Z,101883.00
2023-04-09T03:30:40.925Z,101887.00
2023-04-09T03:33:08.662Z,101837.00
2023-04-09T03:35:36.376Z,101886.00
2023-04-09T03:38:04.109Z,101886.00
2023-04-09T03:40:32.735Z,101874.00
2023-04-09T03:43:01.833Z,101877.00
2023-04-09T03:45:30.736Z,101874.00
2023-04-09T03:47:58.449Z,101861.00
2023-04-09T03:50:26.255Z,101891.00
2023-04-09T03:52:53.993Z,101882.00
2023-04-09T03:55:21.928Z,101890.00
2023-04-09T03:57:49.981Z,101886.00
2023-04-09T04:00:19.234Z,101887.00
2023-04-09T04:02:47.106Z,101883.00
2023-04-09T04:05:15.142Z,101895.00
2023-04-09T04:07:43.883Z,101890.00
2023-04-09T04:10:11.920Z,101892.00
2023-04-09T04:12:39.608Z,101883.00
2023-04-09T04:15:08.448Z,101893.00
2023-04-09T04:17:37.806Z,101893.00
2023-04-09T04:20:06.235Z,101887.00
2023-04-09T04:22:35.282Z,101896.00
2023-04-09T04:25:03.668Z,101883.00
2023-04-09T04:27:31.418Z,101890.00
2023-04-09T04:30:00.231Z,101888.00
2023-04-09T04:32:28.223Z,101885.00
2023-04-09T04:34:57.294Z,101887.00
2023-04-09T04:37:25.167Z,101889.00
2023-04-09T04:39:52.870Z,101899.00
2023-04-09T04:42:20.547Z,101898.00
2023-04-09T04:44:48.228Z,101904.00
2023-04-09T04:47:15.923Z,101904.00
2023-04-09T04:49:43.642Z,101902.00
2023-04-09T04:52:12.716Z,101914.00
2023-04-09T04:54:40.469Z,101899.00
2023-04-09T04:57:08.236Z,101905.00
2023-04-09T04:59:38.565Z,101908.00
2023-04-09T05:02:06.406Z,101913.00
2023-04-09T05:04:34.283Z,101910.00
2023-04-09T05:07:02.277Z,101920.00
2023-04-09T05:09:31.295Z,101918.00
2023-04-09T05:11:59.059Z,101910.00
2023-04-09T05:14:26.830Z,101916.00
2023-04-09T05:16:54.661Z,101917.00
2023-04-09T05:19:22.408Z,101918.00
2023-04-09T05:21:50.247Z,101926.00
2023-04-09T05:24:17.924Z,101923.00
2023-04-09T05:26:46.988Z,101911.00
2023-04-09T05:29:14.894Z,101927.00
2023-04-09T05:31:43.237Z,101926.00
2023-04-09T05:34:11.250Z,101924.00
2023-04-09T05:36:38.978Z,101926.00
2023-04-09T05:39:06.674Z,101928.00
2023-04-09T05:41:37.159Z,101910.00
2023-04-09T05:44:06.733Z,101929.00
2023-04-09T05:46:34.433Z,101926.00
2023-04-09T05:49:02.258Z,101907.00
2023-04-09T05:51:29.954Z,101925.00
2023-04-09T05:53:57.684Z,101929.00
2023-04-09T05:56:25.770Z,101924.00
2023-04-09T05:58:53.490Z,101937.00
2023-04-09T06:01:22.613Z,101923.00
2023-04-09T06:03:50.654Z,101933.00
2023-04-09T06:06:18.677Z,101936.00
2023-04-09T06:08:46.410Z,101937.00
2023-04-09T06:11:14.585Z,101930.00
2023-04-09T06:13:42.350Z,101933.00
2023-04-09T06:16:11.462Z,101923.00
2023-04-09T06:18:42.408Z,101944.00
2023-04-09T06:21:10.658Z,101913.00
2023-04-09T06:23:38.418Z,101928.00
2023-04-09T06:26:06.421Z,101945.00
2023-04-09T06:28:34.078Z,101932.00
2023-04-09T06:31:01.836Z,101940.00
2023-04-09T06:33:29.640Z,101942.00
2023-04-09T06:35:58.789Z,101941.00
2023-04-09T06:38:26.608Z,101940.00
2023-04-09T06:40:54.291Z,101948.00
2023-04-09T06:43:22.014Z,101947.00
2023-04-09T06:45:49.728Z,101929.00
2023-04-09T06:48:17.475Z,101942.00
2023-04-09T06:50:45.344Z,101934.00
2023-04-09T06:53:16.349Z,101943.00
2023-04-09T06:55:44.211Z,101940.00
2023-04-09T06:58:11.910Z,101940.00
2023-04-09T07:00:39.753Z,101951.00
2023-04-09T07:03:09.203Z,101946.00
2023-04-09T07:05:37.220Z,101945.00
2023-04-09T07:08:05.250Z,101951.00
2023-04-09T07:10:34.386Z,101938.00
2023-04-09T07:13:02.529Z,101953.00
2023-04-09T07:15:30.739Z,101949.00
2023-04-09T07:17:58.689Z,101952.00
2023-04-09T07:20:26.534Z,101951.00
2023-04-09T07:22:54.199Z,101942.00
2023-04-09T07:25:22.309Z,101950.00
2023-04-09T07:27:51.483Z,101944.00
2023-04-09T07:30:19.400Z,101919.00
2023-04-09T07:32:47.212Z,101949.00
2023-04-09T07:35:14.918Z,101947.00
2023-04-09T07:37:42.788Z,101956.00
2023-04-09T07:40:10.847Z,101951.00
2023-04-09T07:42:39.034Z,101953.00
2023-04-09T07:45:09.367Z,101946.00
2023-04-09T07:47:37.157Z,101950.00
2023-04-09T07:50:05.357Z,101948.00
2023-04-09T07:52:33.768Z,101948.00
2023-04-09T07:55:01.428Z,101951.00
2023-04-09T07:57:29.197Z,101950.00
2023-04-09T07:59:56.955Z,101954.00
2023-04-09T08:02:26.858Z,101957.00
2023-04-09T08:04:55.915Z,101959.00
2023-04-09T08:07:23.652Z,101951.00
2023-04-09T08:09:51.383Z,101956.00
2023-04-09T08:12:19.103Z,101955.00
2023-04-09T08:14:46.838Z,101956.00
2023-04-09T08:17:14.510Z,101952.00
2023-04-09T08:19:43.561Z,101962.00
2023-04-09T08:22:11.311Z,101954.00
2023-04-09T08:24:40.154Z,101948.00
2023-04-09T08:27:07.974Z,101951.00
2023-04-09T08:29:35.800Z,101962.00
2023-04-09T08:32:03.521Z,101962.00
2023-04-09T08:34:31.495Z,101966.00
2023-04-09T08:37:00.550Z,101963.00
2023-04-09T08:39:28.425Z,101960.00
2023-04-09T08:41:59.893Z,101956.00
2023-04-09T08:44:27.747Z,101958.00
2023-04-09T08:46:56.560Z,101963.00
2023-04-09T08:49:26.024Z,101959.00
2023-04-09T08:51:53.753Z,101957.00
2023-04-09T08:54:23.465Z,101960.00
2023-04-09T08:56:51.241Z,101958.00
2023-04-09T08:59:19.540Z,101955.00
2023-04-09T09:01:52.613Z,101959.00
2023-04-09T09:04:21.854Z,101957.00
2023-04-09T09:06:49.670Z,101958.00
2023-04-09T09:09:18.821Z,101957.00
2023-04-09T09:11:50.331Z,101950.00
2023-04-09T09:14:20.459Z,101937.00
2023-04-09T09:17:06.742Z,101946.00
2023-04-09T09:19:35.768Z,101944.00
2023-04-09T09:22:05.242Z,101938.00
2023-04-09T09:24:34.019Z,101948.00
2023-04-09T09:27:03.586Z,101946.00
2023-04-09T09:29:31.791Z,101946.00
2023-04-09T09:32:01.469Z,101943.00
2023-04-09T09:34:29.202Z,101945.00
2023-04-09T09:36:57.238Z,101944.00
2023-04-09T09:39:24.957Z,101951.00
2023-04-09T09:42:09.590Z,101940.00
2023-04-09T09:44:37.331Z,101944.00
2023-04-09T09:47:05.629Z,101948.00
2023-04-09T09:49:33.353Z,101949.00
2023-04-09T09:52:06.010Z,101941.00
2023-04-09T09:54:41.618Z,101942.00
2023-04-09T09:57:13.538Z,101945.00
2023-04-09T09:59:44.435Z,101946.00
2023-04-09T10:02:20.620Z,101947.00
2023-04-09T10:04:51.119Z,101940.00
2023-04-09T10:07:20.902Z,101945.00
2023-04-09T10:09:51.359Z,101945.00
2023-04-09T10:12:23.772Z,101942.00
2023-04-09T10:14:53.098Z,101930.00
2023-04-09T10:17:21.712Z,101942.00
2023-04-09T10:20:00.643Z,101947.00
2023-04-09T10:22:33.000Z,101929.00
2023-04-09T10:25:00.892Z,101932.00
2023-04-09T10:27:30.116Z,101924.00
2023-04-09T10:29:57.790Z,101932.00
2023-04-09T10:32:27.997Z,101930.00
2023-04-09T10:34:59.325Z,101928.00
2023-04-09T10:37:28.529Z,101920.00
2023-04-09T10:39:57.876Z,101923.00
2023-04-09T10:42:31.753Z,101916.00
2023-04-09T10:45:09.841Z,101915.00
2023-04-09T10:47:39.510Z,101906.00
2023-04-09T10:50:24.036Z,101905.00
2023-04-09T10:52:54.342Z,101905.00
2023-04-09T10:55:34.014Z,101906.00
2023-04-09T10:58:01.701Z,101906.00
2023-04-09T11:00:30.925Z,101910.00
2023-04-09T11:03:21.357Z,101903.00
2023-04-09T11:05:53.238Z,101910.00
2023-04-09T11:08:22.020Z,101901.00
2023-04-09T11:10:51.980Z,101904.00
2023-04-09T11:13:21.863Z,101899.00
2023-04-09T11:15:51.529Z,101902.00
2023-04-09T11:18:23.487Z,101901.00
2023-04-09T11:20:51.363Z,101905.00
2023-04-09T11:23:19.687Z,101903.00
2023-04-09T11:25:50.438Z,101893.00
2023-04-09T11:28:18.746Z,101894.00
2023-04-09T11:30:47.767Z,101884.00
2023-04-09T11:33:19.098Z,101878.00
2023-04-09T11:35:47.598Z,101894.00
2023-04-09T11:38:15.585Z,101892.00
2023-04-09T11:40:48.251Z,101884.00
2023-04-09T11:43:17.786Z,101893.00
2023-04-09T11:45:48.072Z,101871.00
2023-04-09T11:48:19.112Z,101885.00
2023-04-09T11:50:48.156Z,101881.00
2023-04-09T11:53:23.015Z,101878.00
2023-04-09T11:55:52.376Z,101880.00
2023-04-09T11:58:23.505Z,101885.00
2023-04-09T12:00:54.379Z,101892.00
2023-04-09T12:03:29.372Z,101889.00
2023-04-09T12:05:57.451Z,101882.00
2023-04-09T12:08:25.862Z,101883.00
2023-04-09T12:10:54.170Z,101873.00
2023-04-09T12:13:22.178Z,101881.00
2023-04-09T12:15:51.393Z,101871.00
2023-04-09T12:18:19.078Z,101880.00
2023-04-09T12:20:49.671Z,101875.00
2023-04-09T12:23:17.848Z,101871.00
2023-04-09T12:25:47.583Z,101883.00
2023-04-09T12:28:18.496Z,101880.00
2023-04-09T12:30:46.912Z,101878.00
2023-04-09T12:33:14.666Z,101877.00
2023-04-09T12:35:42.420Z,101870.00
2023-04-09T12:38:11.504Z,101869.00
2023-04-09T12:40:40.182Z,101861.00
2023-04-09T12:43:07.872Z,101862.00
2023-04-09T12:45:35.790Z,101853.00
2023-04-09T12:48:03.651Z,101856.00
2023-04-09T12:50:31.382Z,101858.00
2023-04-09T12:52:59.037Z,101855.00
2023-04-09T12:55:28.312Z,101854.00
2023-04-09T12:57:56.076Z,101850.00
2023-04-09T13:00:23.949Z,101842.00
2023-04-09T13:02:52.788Z,101836.00
2023-04-09T13:05:20.906Z,101829.00
2023-04-09T13:07:48.556Z,101838.00
2023-04-09T13:10:16.344Z,101842.00
2023-04-09T13:12:45.431Z,101828.00
2023-04-09T13:15:13.100Z,101825.00
2023-04-09T13:17:40.858Z,101824.00
2023-04-09T13:20:09.909Z,101827.00
2023-04-09T13:22:37.627Z,101827.00
2023-04-09T13:25:05.812Z,101826.00
2023-04-09T13:27:33.901Z,101839.00
2023-04-09T13:30:03.363Z,101827.00
2023-04-09T13:32:31.818Z,101823.00
2023-04-09T13:34:59.550Z,101820.00
2023-04-09T13:37:27.280Z,101816.00
2023-04-09T13:39:55.400Z,101817.00
2023-04-09T13:42:23.064Z,101807.00
2023-04-09T13:44:51.288Z,101810.00
2023-04-09T13:47:21.065Z,101802.00
2023-04-09T13:49:48.811Z,101807.00
2023-04-09T13:52:16.779Z,101805.00
2023-04-09T13:54:44.511Z,101802.00
2023-04-09T13:57:12.324Z,101800.00
2023-04-09T13:59:41.651Z,101801.00
2023-04-09T14:02:10.317Z,101794.00
2023-04-09T14:04:39.697Z,101789.00
2023-04-09T14:07:08.382Z,101785.00
2023-04-09T14:09:36.438Z,101781.00
2023-04-09T14:12:04.477Z,101785.00
2023-04-09T14:14:32.424Z,101780.00
2023-04-09T14:17:00.144Z,101762.00
2023-04-09T14:19:27.926Z,101775.00
2023-04-09T14:21:57.060Z,101778.00
2023-04-09T14:24:24.969Z,101774.00
2023-04-09T14:26:53.581Z,101753.00
2023-04-09T14:29:22.132Z,101767.00
2023-04-09T14:31:50.039Z,101773.00
2023-04-09T14:34:17.858Z,101786.00
2023-04-09T14:36:45.594Z,101776.00
2023-04-09T14:39:14.728Z,101775.00
2023-04-09T14:41:42.556Z,101784.00
2023-04-09T14:44:10.319Z,101775.00
2023-04-09T14:46:38.181Z,101763.00
2023-04-09T14:49:05.881Z,101766.00
2023-04-09T14:51:34.172Z,101763.00
2023-04-09T14:54:02.604Z,101755.00
2023-04-09T14:56:31.707Z,101758.00
2023-04-09T14:58:59.961Z,101752.00
2023-04-09T15:01:28.173Z,101743.00
2023-04-09T15:03:56.457Z,101748.00
2023-04-09T15:06:24.319Z,101740.00
2023-04-09T15:08:52.360Z,101747.00
2023-04-09T15:11:22.789Z,101738.00
2023-04-09T15:13:52.775Z,101741.00
2023-04-09T15:16:24.578Z,101740.00
2023-04-09T15:18:52.964Z,101738.00
2023-04-09T15:21:21.506Z,101730.00
2023-04-09T15:23:51.772Z,101738.00
2023-04-09T15:26:19.787Z,101737.00
2023-04-09T15:28:47.622Z,101724.00
2023-04-09T15:31:16.765Z,101737.00
2023-04-09T15:33:44.769Z,101735.00
2023-04-09T15:36:12.701Z,101713.00
2023-04-09T15:38:40.638Z,101728.00
2023-04-09T15:41:08.435Z,101717.00
2023-04-09T15:43:36.190Z,101716.00
2023-04-09T15:46:09.310Z,101721.00
2023-04-09T15:48:38.856Z,101718.00
2023-04-09T15:51:07.144Z,101732.00
2023-04-09T15:53:35.299Z,101710.00
2023-04-09T15:56:04.151Z,101716.00
2023-04-09T15:58:32.104Z,101708.00
2023-04-09T16:01:00.837Z,101717.00
2023-04-09T16:03:28.518Z,101713.00
2023-04-09T16:05:57.771Z,101717.00
2023-04-09T16:08:26.701Z,101724.00
2023-04-09T16:10:54.405Z,101716.00
2023-04-09T16:13:22.157Z,101721.00
2023-04-09T16:15:51.053Z,101714.00
2023-04-09T16:18:18.855Z,101711.00
2023-04-09T16:20:46.655Z,101702.00
2023-04-09T16:23:15.811Z,101707.00
2023-04-09T16:25:43.481Z,101712.00
2023-04-09T16:28:11.221Z,101702.00
2023-04-09T16:30:39.864Z,101703.00
2023-04-09T16:33:08.618Z,101710.00
2023-04-09T16:35:38.650Z,101711.00
2023-04-09T16:38:07.652Z,101711.00
2023-04-09T16:40:36.672Z,101711.00
2023-04-09T16:43:05.337Z,101695.00
2023-04-09T16:45:33.165Z,101696.00
2023-04-09T16:48:01.477Z,101705.00
2023-04-09T16:50:29.776Z,101704.00
2023-04-09T16:52:57.483Z,101705.00
2023-04-09T16:55:25.797Z,101701.00
2023-04-09T16:57:56.305Z,101716.00
2023-04-09T17:00:24.828Z,101696.00
2023-04-09T17:02:52.698Z,101699.00
2023-04-09T17:05:20.469Z,101696.00
2023-04-09T17:07:48.243Z,101700.00
2023-04-09T17:10:16.126Z,101699.00
2023-04-09T17:12:43.810Z,101696.00
2023-04-09T17:15:13.227Z,101699.00
2023-04-09T17:17:41.081Z,101704.00
2023-04-09T17:20:09.642Z,101702.00
2023-04-09T17:22:38.145Z,101708.00
2023-04-09T17:25:06.357Z,101704.00
2023-04-09T17:27:34.067Z,101701.00
2023-04-09T17:30:01.884Z,101712.00
2023-04-09T17:32:31.435Z,101706.00
2023-04-09T17:34:59.827Z,101705.00
2023-04-09T17:37:28.810Z,101712.00
2023-04-09T17:39:56.520Z,101707.00
2023-04-09T17:42:26.829Z,101715.00
2023-04-09T17:44:54.538Z,101713.00
2023-04-09T17:47:22.320Z,101705.00
2023-04-09T17:49:51.880Z,101706.00
2023-04-09T17:52:20.458Z,101700.00
2023-04-09T17:54:50.486Z,101703.00
2023-04-09T17:57:18.480Z,101710.00
2023-04-09T17:59:46.270Z,101712.00
2023-04-09T18:02:14.077Z,101709.00
2023-04-09T18:04:42.133Z,101707.00
2023-04-09T18:07:11.511Z,101701.00
2023-04-09T18:09:40.638Z,101698.00
2023-04-09T18:12:08.419Z,101699.00
2023-04-09T18:14:36.319Z,101703.00
2023-04-09T18:17:04.105Z,101703.00
2023-04-09T18:19:32.072Z,101701.00
2023-04-09T18:21:59.829Z,101712.00
2023-04-09T18:24:29.279Z,101708.00
2023-04-09T18:26:57.357Z,101714.00
2023-04-09T18:29:27.394Z,101715.00
2023-04-09T18:31:55.740Z,101718.00
2023-04-09T18:34:23.943Z,101712.00
2023-04-09T18:36:51.756Z,101721.00
2023-04-09T18:39:20.627Z,101707.00
2023-04-09T18:41:49.779Z,101712.00
2023-04-09T18:44:17.561Z,101710.00
2023-04-09T18:46:45.402Z,101708.00
2023-04-09T18:49:13.179Z,101705.00
2023-04-09T18:51:41.077Z,101705.00
2023-04-09T18:54:08.903Z,101702.00
2023-04-09T18:56:36.626Z,101705.00
2023-04-09T18:59:05.795Z,101708.00
2023-04-09T19:01:33.507Z,101709.00
2023-04-09T19:04:01.530Z,101708.00
2023-04-09T19:06:29.910Z,101711.00
2023-04-09T19:08:58.974Z,101718.00
2023-04-09T19:11:26.983Z,101715.00
2023-04-09T19:13:54.761Z,101711.00
2023-04-09T19:16:23.917Z,101692.00
2023-04-09T19:18:51.832Z,101694.00
2023-04-09T19:21:19.685Z,101701.00
2023-04-09T19:23:47.643Z,101713.00
2023-04-09T19:26:15.325Z,101708.00
2023-04-09T19:28:43.026Z,101698.00
2023-04-09T19:31:12.613Z,101703.00
2023-04-09T19:33:41.794Z,101695.00
2023-04-09T19:36:09.488Z,101705.00
2023-04-09T19:38:37.205Z,101701.00
2023-04-09T19:41:05.290Z,101699.00
2023-04-09T19:43:33.082Z,101699.00
2023-04-09T19:46:05.018Z,101696.00
2023-04-09T19:48:32.871Z,101699.00
2023-04-09T19:51:02.907Z,101700.00
2023-04-09T19:53:31.003Z,101711.00
2023-04-09T19:55:58.704Z,101704.00
2023-04-09T19:58:27.262Z,101699.00
2023-04-09T20:00:55.128Z,101692.00
2023-04-09T20:03:23.019Z,101692.00
2023-04-09T20:05:50.911Z,101696.00
2023-04-09T20:08:20.207Z,101692.00
2023-04-09T20:10:48.855Z,101701.00
2023-04-09T20:13:16.624Z,101690.00
2023-04-09T20:15:44.329Z,101695.00
2023-04-09T20:18:12.234Z,101700.00
2023-04-09T20:20:40.101Z,101708.00
2023-04-09T20:23:07.853Z,101705.00
2023-04-09T20:25:37.016Z,101711.00
2023-04-09T20:28:04.996Z,101709.00
2023-04-09T20:30:32.959Z,101700.00
2023-04-09T20:33:01.379Z,101710.00
2023-04-09T20:35:29.231Z,101715.00
2023-04-09T20:37:56.993Z,101715.00
2023-04-09T20:40:25.055Z,101695.00
2023-04-09T20:42:54.110Z,101700.00
2023-04-09T20:45:21.799Z,101688.00
2023-04-09T20:47:50.761Z,101682.00
2023-04-09T20:50:19.678Z,101682.00
2023-04-09T20:52:47.500Z,101685.00
2023-04-09T20:55:15.676Z,101689.00
2023-04-09T20:57:43.906Z,101679.00
2023-04-09T21:00:14.614Z,101689.00
2023-04-09T21:02:42.410Z,101681.00
2023-04-09T21:05:21.937Z,101681.00
2023-04-09T21:07:51.132Z,101675.00
2023-04-09T21:10:19.013Z,101668.00
2023-04-09T21:12:46.754Z,101676.00
2023-04-09T21:15:16.041Z,101673.00
2023-04-09T21:17:43.784Z,101669.00
2023-04-09T21:20:12.181Z,101674.00
2023-04-09T21:22:39.879Z,101665.00
2023-04-09T21:25:08.270Z,101679.00
2023-04-09T21:27:35.953Z,101667.00
2023-04-09T21:30:03.861Z,101667.00
2023-04-09T21:32:32.939Z,101667.00
2023-04-09T21:35:00.802Z,101662.00
2023-04-09T21:37:28.988Z,101663.00
2023-04-09T21:39:56.733Z,101654.00
2023-04-09T21:42:25.127Z,101671.00
2023-04-09T21:44:52.803Z,101670.00
2023-04-09T21:47:20.829Z,101675.00
2023-04-09T21:49:50.258Z,101674.00
2023-04-09T21:52:18.006Z,101661.00
2023-04-09T21:54:45.697Z,101666.00
2023-04-09T21:57:13.395Z,101671.00
2023-04-09T21:59:41.320Z,101655.00
2023-04-09T22:02:10.016Z,101669.00
2023-04-09T22:04:37.937Z,101671.00
2023-04-09T22:07:07.089Z,101667.00
2023-04-09T22:09:35.980Z,101666.00
2023-04-09T22:12:04.162Z,101665.00
2023-04-09T22:14:33.697Z,101661.00
2023-04-09T22:17:02.100Z,101655.00
2023-04-09T22:19:31.438Z,101672.00
2023-04-09T22:21:59.550Z,101665.00
2023-04-09T22:24:30.096Z,101686.00
2023-04-09T22:26:58.863Z,101677.00
2023-04-09T22:29:27.893Z,101679.00
2023-04-09T22:31:55.899Z,101675.00
2023-04-09T22:34:23.642Z,101675.00
2023-04-09T22:36:51.578Z,101668.00
2023-04-09T22:39:19.291Z,101679.00
2023-04-09T22:41:48.456Z,101669.00
2023-04-09T22:44:16.226Z,101681.00
2023-04-09T22:46:44.023Z,101673.00
2023-04-09T22:49:12.340Z,101666.00
2023-04-09T22:51:41.637Z,101663.00
2023-04-09T22:54:09.627Z,101669.00
2023-04-09T22:56:37.666Z,101670.00
2023-04-09T22:59:07.119Z,101663.00
2023-04-09T23:01:34.995Z,101666.00
2023-04-09T23:04:02.788Z,101655.00
2023-04-09T23:06:31.092Z,101661.00
2023-04-09T23:08:59.856Z,101662.00
2023-04-09T23:11:28.235Z,101668.00
2023-04-09T23:13:55.943Z,101656.00
2023-04-09T23:16:25.102Z,101663.00
2023-04-09T23:18:53.057Z,101670.00
2023-04-09T23:21:21.072Z,101659.00
2023-04-09T23:23:49.009Z,101659.00
2023-04-09T23:26:16.703Z,101655.00
2023-04-09T23:28:44.487Z,101649.00
2023-04-09T23:31:12.376Z,101651.00
2023-04-09T23:33:41.574Z,101655.00
2023-04-09T23:36:09.867Z,101656.00
2023-04-09T23:38:40.084Z,101656.00
2023-04-09T23:41:08.019Z,101661.00
2023-04-09T23:43:35.808Z,101659.00
2023-04-09T23:46:03.555Z,101647.00
2023-04-09T23:48:31.325Z,101666.00
2023-04-09T23:51:00.493Z,101658.00
2023-04-09T23:53:28.180Z,101660.00
2023-04-09T23:55:55.895Z,101671.00
2023-04-09T23:58:23.616Z,101667.00
